sensor_id;sensor_type;location;lat;lon;timestamp;P1;durP1;ratioP1;P2;durP2;ratioP2
4500;SDS011;2263;54.654;9.410;2023-03-01T00:01:28;13.00;;;10.63;;
4500;SDS011;2263;54.654;9.410;2023-03-01T00:04:13;12.73;;;10.03;;
4500;SDS011;2263;54.654;9.410;2023-03-01T00:06:58;13.73;;;10.70;;
4500;SDS011;2263;54.654;9.410;2023-03-01T00:09:42;13.93;;;10.37;;
4500;SDS011;2263;54.654;9.410;2023-03-01T00:12:29;16.70;;;12.00;;
4500;SDS011;2263;54.654;9.410;2023-03-01T00:15:15;13.53;;;9.83;;
4500;SDS011;2263;54.654;9.410;2023-03-01T00:18:00;12.43;;;10.10;;
4500;SDS011;2263;54.654;9.410;2023-03-01T00:20:54;11.80;;;9.53;;
4500;SDS011;2263;54.654;9.410;2023-03-01T00:23:39;11.47;;;9.20;;
4500;SDS011;2263;54.654;9.410;2023-03-01T00:26:24;11.00;;;9.33;;
4500;SDS011;2263;54.654;9.410;2023-03-01T00:29:09;9.30;;;8.30;;
4500;SDS011;2263;54.654;9.410;2023-03-01T00:31:54;10.53;;;8.87;;
4500;SDS011;2263;54.654;9.410;2023-03-01T00:34:38;12.50;;;9.47;;
4500;SDS011;2263;54.654;9.410;2023-03-01T00:37:23;12.20;;;9.20;;
4500;SDS011;2263;54.654;9.410;2023-03-01T00:40:08;9.90;;;8.50;;
4500;SDS011;2263;54.654;9.410;2023-03-01T00:42:54;9.20;;;8.10;;
4500;SDS011;2263;54.654;9.410;2023-03-01T00:45:38;8.93;;;8.13;;
4500;SDS011;2263;54.654;9.410;2023-03-01T00:48:23;9.63;;;8.73;;
4500;SDS011;2263;54.654;9.410;2023-03-01T00:51:11;8.13;;;7.37;;
4500;SDS011;2263;54.654;9.410;2023-03-01T00:54:01;9.30;;;8.40;;
4500;SDS011;2263;54.654;9.410;2023-03-01T00:56:47;9.90;;;8.90;;
4500;SDS011;2263;54.654;9.410;2023-03-01T00:59:31;10.33;;;7.83;;
4500;SDS011;2263;54.654;9.410;2023-03-01T01:02:16;8.50;;;7.70;;
4500;SDS011;2263;54.654;9.410;2023-03-01T01:05:00;8.80;;;7.90;;
4500;SDS011;2263;54.654;9.410;2023-03-01T01:07:45;8.37;;;7.57;;
4500;SDS011;2263;54.654;9.410;2023-03-01T01:10:29;10.37;;;8.87;;
4500;SDS011;2263;54.654;9.410;2023-03-01T01:13:13;10.00;;;8.80;;
4500;SDS011;2263;54.654;9.410;2023-03-01T01:16:01;8.50;;;7.70;;
4500;SDS011;2263;54.654;9.410;2023-03-01T01:18:45;8.30;;;7.50;;
4500;SDS011;2263;54.654;9.410;2023-03-01T01:21:30;8.20;;;7.60;;
4500;SDS011;2263;54.654;9.410;2023-03-01T01:24:15;9.03;;;8.13;;
4500;SDS011;2263;54.654;9.410;2023-03-01T01:27:00;9.20;;;8.27;;
4500;SDS011;2263;54.654;9.410;2023-03-01T01:29:44;10.13;;;8.47;;
4500;SDS011;2263;54.654;9.410;2023-03-01T01:32:29;8.13;;;7.33;;
4500;SDS011;2263;54.654;9.410;2023-03-01T01:35:13;10.10;;;8.83;;
4500;SDS011;2263;54.654;9.410;2023-03-01T01:37:58;9.37;;;8.33;;
4500;SDS011;2263;54.654;9.410;2023-03-01T01:40:43;9.10;;;8.10;;
4500;SDS011;2263;54.654;9.410;2023-03-01T01:43:30;9.30;;;8.40;;
4500;SDS011;2263;54.654;9.410;2023-03-01T01:46:28;9.27;;;8.00;;
4500;SDS011;2263;54.654;9.410;2023-03-01T01:49:19;8.70;;;7.77;;
4500;SDS011;2263;54.654;9.410;2023-03-01T01:52:15;9.80;;;8.57;;
4500;SDS011;2263;54.654;9.410;2023-03-01T01:57:52;10.33;;;8.50;;
4500;SDS011;2263;54.654;9.410;2023-03-01T02:00:39;9.40;;;8.10;;
4500;SDS011;2263;54.654;9.410;2023-03-01T02:03:25;9.37;;;8.30;;
4500;SDS011;2263;54.654;9.410;2023-03-01T02:06:21;8.20;;;7.40;;
4500;SDS011;2263;54.654;9.410;2023-03-01T02:09:14;8.03;;;7.33;;
4500;SDS011;2263;54.654;9.410;2023-03-01T02:12:00;8.00;;;7.20;;
4500;SDS011;2263;54.654;9.410;2023-03-01T02:14:48;9.17;;;8.23;;
4500;SDS011;2263;54.654;9.410;2023-03-01T02:17:32;8.80;;;7.30;;
4500;SDS011;2263;54.654;9.410;2023-03-01T02:20:31;8.43;;;7.40;;
4500;SDS011;2263;54.654;9.410;2023-03-01T02:23:17;9.93;;;7.27;;
4500;SDS011;2263;54.654;9.410;2023-03-01T02:28:56;6.53;;;6.03;;
4500;SDS011;2263;54.654;9.410;2023-03-01T02:31:40;7.80;;;6.60;;
4500;SDS011;2263;54.654;9.410;2023-03-01T02:34:25;7.40;;;6.77;;
4500;SDS011;2263;54.654;9.410;2023-03-01T02:37:12;8.23;;;6.83;;
4500;SDS011;2263;54.654;9.410;2023-03-01T02:39:59;7.00;;;6.30;;
4500;SDS011;2263;54.654;9.410;2023-03-01T02:42:53;6.67;;;6.07;;
4500;SDS011;2263;54.654;9.410;2023-03-01T02:45:43;6.60;;;6.03;;
4500;SDS011;2263;54.654;9.410;2023-03-01T02:48:42;6.27;;;5.70;;
4500;SDS011;2263;54.654;9.410;2023-03-01T02:51:45;6.70;;;6.10;;
4500;SDS011;2263;54.654;9.410;2023-03-01T02:57:50;6.40;;;5.80;;
4500;SDS011;2263;54.654;9.410;2023-03-01T03:00:38;6.00;;;5.50;;
4500;SDS011;2263;54.654;9.410;2023-03-01T03:03:29;6.90;;;6.30;;
4500;SDS011;2263;54.654;9.410;2023-03-01T03:06:13;5.87;;;5.37;;
4500;SDS011;2263;54.654;9.410;2023-03-01T03:08:58;6.63;;;6.13;;
4500;SDS011;2263;54.654;9.410;2023-03-01T03:11:43;6.17;;;5.67;;
4500;SDS011;2263;54.654;9.410;2023-03-01T03:14:27;6.50;;;5.90;;
4500;SDS011;2263;54.654;9.410;2023-03-01T03:17:12;6.00;;;5.50;;
4500;SDS011;2263;54.654;9.410;2023-03-01T03:19:56;6.47;;;6.00;;
4500;SDS011;2263;54.654;9.410;2023-03-01T03:22:41;6.67;;;6.03;;
4500;SDS011;2263;54.654;9.410;2023-03-01T03:25:26;5.70;;;5.20;;
4500;SDS011;2263;54.654;9.410;2023-03-01T03:28:11;6.80;;;6.23;;
4500;SDS011;2263;54.654;9.410;2023-03-01T03:30:55;6.70;;;6.10;;
4500;SDS011;2263;54.654;9.410;2023-03-01T03:33:40;6.40;;;5.80;;
4500;SDS011;2263;54.654;9.410;2023-03-01T03:36:24;5.73;;;5.13;;
4500;SDS011;2263;54.654;9.410;2023-03-01T03:39:09;8.37;;;6.10;;
4500;SDS011;2263;54.654;9.410;2023-03-01T03:41:54;6.10;;;5.60;;
4500;SDS011;2263;54.654;9.410;2023-03-01T03:44:38;7.77;;;6.27;;
4500;SDS011;2263;54.654;9.410;2023-03-01T03:47:24;6.87;;;6.03;;
4500;SDS011;2263;54.654;9.410;2023-03-01T03:50:09;6.40;;;5.80;;
4500;SDS011;2263;54.654;9.410;2023-03-01T03:52:55;5.47;;;4.97;;
4500;SDS011;2263;54.654;9.410;2023-03-01T03:55:39;5.77;;;5.27;;
4500;SDS011;2263;54.654;9.410;2023-03-01T03:58:24;6.67;;;6.07;;
4500;SDS011;2263;54.654;9.410;2023-03-01T04:01:09;4.80;;;4.40;;
4500;SDS011;2263;54.654;9.410;2023-03-01T04:03:53;5.83;;;5.33;;
4500;SDS011;2263;54.654;9.410;2023-03-01T04:06:38;5.93;;;5.33;;
4500;SDS011;2263;54.654;9.410;2023-03-01T04:09:22;5.67;;;5.27;;
4500;SDS011;2263;54.654;9.410;2023-03-01T04:12:07;7.57;;;6.50;;
4500;SDS011;2263;54.654;9.410;2023-03-01T04:14:51;6.07;;;5.57;;
4500;SDS011;2263;54.654;9.410;2023-03-01T04:17:36;5.30;;;4.80;;
4500;SDS011;2263;54.654;9.410;2023-03-01T04:20:21;6.00;;;5.43;;
4500;SDS011;2263;54.654;9.410;2023-03-01T04:23:13;5.90;;;5.40;;
4500;SDS011;2263;54.654;9.410;2023-03-01T04:26:00;5.73;;;5.23;;
4500;SDS011;2263;54.654;9.410;2023-03-01T04:28:44;6.20;;;5.60;;
4500;SDS011;2263;54.654;9.410;2023-03-01T04:31:29;5.90;;;5.40;;
4500;SDS011;2263;54.654;9.410;2023-03-01T04:34:13;5.63;;;5.13;;
4500;SDS011;2263;54.654;9.410;2023-03-01T04:36:58;7.20;;;6.50;;
4500;SDS011;2263;54.654;9.410;2023-03-01T04:39:42;6.07;;;5.57;;
4500;SDS011;2263;54.654;9.410;2023-03-01T04:42:31;5.60;;;4.97;;
4500;SDS011;2263;54.654;9.410;2023-03-01T04:45:15;7.13;;;6.33;;
4500;SDS011;2263;54.654;9.410;2023-03-01T04:48:00;7.67;;;6.87;;
4500;SDS011;2263;54.654;9.410;2023-03-01T04:50:44;6.07;;;5.47;;
4500;SDS011;2263;54.654;9.410;2023-03-01T04:53:29;6.07;;;5.47;;
4500;SDS011;2263;54.654;9.410;2023-03-01T04:56:14;6.77;;;6.07;;
4500;SDS011;2263;54.654;9.410;2023-03-01T04:58:59;5.50;;;5.00;;
4500;SDS011;2263;54.654;9.410;2023-03-01T05:01:44;5.50;;;5.10;;
4500;SDS011;2263;54.654;9.410;2023-03-01T05:04:28;5.63;;;5.23;;
4500;SDS011;2263;54.654;9.410;2023-03-01T05:07:14;5.30;;;4.90;;
4500;SDS011;2263;54.654;9.410;2023-03-01T05:10:03;6.80;;;6.20;;
4500;SDS011;2263;54.654;9.410;2023-03-01T05:12:47;5.40;;;4.90;;
4500;SDS011;2263;54.654;9.410;2023-03-01T05:15:32;6.30;;;5.70;;
4500;SDS011;2263;54.654;9.410;2023-03-01T05:18:17;5.10;;;4.63;;
4500;SDS011;2263;54.654;9.410;2023-03-01T05:21:02;7.10;;;6.03;;
4500;SDS011;2263;54.654;9.410;2023-03-01T05:23:50;5.93;;;5.43;;
4500;SDS011;2263;54.654;9.410;2023-03-01T05:26:34;5.60;;;5.20;;
4500;SDS011;2263;54.654;9.410;2023-03-01T05:29:21;4.87;;;4.47;;
4500;SDS011;2263;54.654;9.410;2023-03-01T05:32:10;5.80;;;5.30;;
4500;SDS011;2263;54.654;9.410;2023-03-01T05:34:59;7.00;;;6.40;;
4500;SDS011;2263;54.654;9.410;2023-03-01T05:37:44;4.20;;;3.90;;
4500;SDS011;2263;54.654;9.410;2023-03-01T05:40:32;5.10;;;4.63;;
4500;SDS011;2263;54.654;9.410;2023-03-01T05:43:18;5.60;;;5.10;;
4500;SDS011;2263;54.654;9.410;2023-03-01T05:46:02;4.67;;;4.33;;
4500;SDS011;2263;54.654;9.410;2023-03-01T05:48:46;4.57;;;4.17;;
4500;SDS011;2263;54.654;9.410;2023-03-01T05:51:31;4.20;;;3.90;;
4500;SDS011;2263;54.654;9.410;2023-03-01T05:54:18;4.00;;;3.70;;
4500;SDS011;2263;54.654;9.410;2023-03-01T05:57:02;4.17;;;3.87;;
4500;SDS011;2263;54.654;9.410;2023-03-01T05:59:47;4.30;;;3.93;;
4500;SDS011;2263;54.654;9.410;2023-03-01T06:02:31;4.03;;;3.83;;
4500;SDS011;2263;54.654;9.410;2023-03-01T06:05:16;3.70;;;3.43;;
4500;SDS011;2263;54.654;9.410;2023-03-01T06:08:00;5.17;;;4.77;;
4500;SDS011;2263;54.654;9.410;2023-03-01T06:10:45;4.50;;;4.20;;
4500;SDS011;2263;54.654;9.410;2023-03-01T06:13:31;5.40;;;4.90;;
4500;SDS011;2263;54.654;9.410;2023-03-01T06:16:16;5.27;;;4.87;;
4500;SDS011;2263;54.654;9.410;2023-03-01T06:19:00;5.23;;;4.73;;
4500;SDS011;2263;54.654;9.410;2023-03-01T06:21:45;4.43;;;4.03;;
4500;SDS011;2263;54.654;9.410;2023-03-01T06:24:29;5.50;;;5.10;;
4500;SDS011;2263;54.654;9.410;2023-03-01T06:27:14;5.43;;;5.03;;
4500;SDS011;2263;54.654;9.410;2023-03-01T06:29:58;6.30;;;5.70;;
4500;SDS011;2263;54.654;9.410;2023-03-01T06:32:43;8.73;;;7.00;;
4500;SDS011;2263;54.654;9.410;2023-03-01T06:35:27;9.87;;;7.30;;
4500;SDS011;2263;54.654;9.410;2023-03-01T06:38:14;11.30;;;8.80;;
4500;SDS011;2263;54.654;9.410;2023-03-01T06:41:01;13.87;;;9.77;;
4500;SDS011;2263;54.654;9.410;2023-03-01T06:43:45;14.43;;;10.50;;
4500;SDS011;2263;54.654;9.410;2023-03-01T06:46:30;11.13;;;8.50;;
4500;SDS011;2263;54.654;9.410;2023-03-01T06:49:14;14.70;;;10.13;;
4500;SDS011;2263;54.654;9.410;2023-03-01T06:52:01;11.33;;;8.93;;
4500;SDS011;2263;54.654;9.410;2023-03-01T06:54:45;11.17;;;8.70;;
4500;SDS011;2263;54.654;9.410;2023-03-01T06:57:30;9.50;;;8.53;;
4500;SDS011;2263;54.654;9.410;2023-03-01T07:00:15;8.17;;;7.37;;
4500;SDS011;2263;54.654;9.410;2023-03-01T07:03:00;7.47;;;6.60;;
4500;SDS011;2263;54.654;9.410;2023-03-01T07:05:48;22.30;;;20.07;;
4500;SDS011;2263;54.654;9.410;2023-03-01T07:08:33;26.23;;;23.40;;
4500;SDS011;2263;54.654;9.410;2023-03-01T07:11:18;37.00;;;33.27;;
4500;SDS011;2263;54.654;9.410;2023-03-01T07:14:02;36.70;;;32.73;;
4500;SDS011;2263;54.654;9.410;2023-03-01T07:16:47;33.57;;;30.30;;
4500;SDS011;2263;54.654;9.410;2023-03-01T07:19:31;26.10;;;23.60;;
4500;SDS011;2263;54.654;9.410;2023-03-01T07:22:16;28.30;;;25.40;;
4500;SDS011;2263;54.654;9.410;2023-03-01T07:25:01;25.90;;;23.40;;
4500;SDS011;2263;54.654;9.410;2023-03-01T07:27:48;23.33;;;20.93;;
4500;SDS011;2263;54.654;9.410;2023-03-01T07:30:34;21.63;;;19.57;;
4500;SDS011;2263;54.654;9.410;2023-03-01T07:33:19;17.93;;;16.23;;
4500;SDS011;2263;54.654;9.410;2023-03-01T07:44:13;11.30;;;10.27;;
4500;SDS011;2263;54.654;9.410;2023-03-01T07:46:59;12.20;;;4.60;;
4500;SDS011;2263;54.654;9.410;2023-03-01T07:49:43;5.50;;;5.10;;
4500;SDS011;2263;54.654;9.410;2023-03-01T07:52:28;5.20;;;4.80;;
4500;SDS011;2263;54.654;9.410;2023-03-01T07:55:15;4.90;;;4.60;;
4500;SDS011;2263;54.654;9.410;2023-03-01T07:58:00;4.27;;;4.07;;
4500;SDS011;2263;54.654;9.410;2023-03-01T08:00:44;5.00;;;4.60;;
4500;SDS011;2263;54.654;9.410;2023-03-01T08:03:28;8.37;;;4.50;;
4500;SDS011;2263;54.654;9.410;2023-03-01T08:06:14;4.00;;;3.70;;
4500;SDS011;2263;54.654;9.410;2023-03-01T08:08:59;3.47;;;3.27;;
4500;SDS011;2263;54.654;9.410;2023-03-01T08:11:44;4.07;;;3.87;;
4500;SDS011;2263;54.654;9.410;2023-03-01T08:14:28;3.83;;;3.60;;
4500;SDS011;2263;54.654;9.410;2023-03-01T08:17:13;3.13;;;2.93;;
4500;SDS011;2263;54.654;9.410;2023-03-01T08:19:58;3.57;;;3.37;;
4500;SDS011;2263;54.654;9.410;2023-03-01T08:22:46;3.30;;;3.10;;
4500;SDS011;2263;54.654;9.410;2023-03-01T08:25:30;4.03;;;3.73;;
4500;SDS011;2263;54.654;9.410;2023-03-01T08:28:15;2.70;;;2.50;;
4500;SDS011;2263;54.654;9.410;2023-03-01T08:31:00;2.60;;;2.40;;
4500;SDS011;2263;54.654;9.410;2023-03-01T08:33:44;2.40;;;2.30;;
4500;SDS011;2263;54.654;9.410;2023-03-01T08:36:39;3.00;;;2.80;;
4500;SDS011;2263;54.654;9.410;2023-03-01T08:39:28;2.23;;;2.13;;
4500;SDS011;2263;54.654;9.410;2023-03-01T08:42:13;2.57;;;2.37;;
4500;SDS011;2263;54.654;9.410;2023-03-01T08:44:58;2.03;;;1.90;;
4500;SDS011;2263;54.654;9.410;2023-03-01T08:47:42;1.60;;;1.47;;
4500;SDS011;2263;54.654;9.410;2023-03-01T08:50:27;2.30;;;2.10;;
4500;SDS011;2263;54.654;9.410;2023-03-01T08:53:11;1.50;;;1.40;;
4500;SDS011;2263;54.654;9.410;2023-03-01T08:55:57;1.60;;;1.47;;
4500;SDS011;2263;54.654;9.410;2023-03-01T08:58:45;1.80;;;1.70;;
4500;SDS011;2263;54.654;9.410;2023-03-01T09:01:30;2.20;;;2.07;;
4500;SDS011;2263;54.654;9.410;2023-03-01T09:04:15;1.97;;;1.87;;
4500;SDS011;2263;54.654;9.410;2023-03-01T09:07:00;1.87;;;1.70;;
4500;SDS011;2263;54.654;9.410;2023-03-01T09:09:45;2.30;;;1.93;;
4500;SDS011;2263;54.654;9.410;2023-03-01T09:12:29;1.60;;;1.50;;
4500;SDS011;2263;54.654;9.410;2023-03-01T09:15:14;2.10;;;2.00;;
4500;SDS011;2263;54.654;9.410;2023-03-01T09:17:58;1.90;;;1.80;;
4500;SDS011;2263;54.654;9.410;2023-03-01T09:20:43;2.20;;;2.00;;
4500;SDS011;2263;54.654;9.410;2023-03-01T09:23:27;2.40;;;2.30;;
4500;SDS011;2263;54.654;9.410;2023-03-01T09:26:19;2.87;;;2.60;;
4500;SDS011;2263;54.654;9.410;2023-03-01T09:29:05;2.40;;;2.20;;
4500;SDS011;2263;54.654;9.410;2023-03-01T09:31:49;3.20;;;3.00;;
4500;SDS011;2263;54.654;9.410;2023-03-01T09:34:34;2.73;;;2.53;;
4500;SDS011;2263;54.654;9.410;2023-03-01T09:37:38;2.60;;;2.40;;
4500;SDS011;2263;54.654;9.410;2023-03-01T09:40:27;2.30;;;2.10;;
4500;SDS011;2263;54.654;9.410;2023-03-01T09:43:18;3.70;;;2.63;;
4500;SDS011;2263;54.654;9.410;2023-03-01T09:46:10;2.70;;;2.50;;
4500;SDS011;2263;54.654;9.410;2023-03-01T09:49:17;2.90;;;2.70;;
4500;SDS011;2263;54.654;9.410;2023-03-01T09:54:49;4.07;;;3.33;;
4500;SDS011;2263;54.654;9.410;2023-03-01T10:00:36;4.20;;;3.90;;
4500;SDS011;2263;54.654;9.410;2023-03-01T10:03:36;3.70;;;3.50;;
4500;SDS011;2263;54.654;9.410;2023-03-01T10:06:26;3.67;;;3.37;;
4500;SDS011;2263;54.654;9.410;2023-03-01T10:09:15;3.63;;;3.37;;
4500;SDS011;2263;54.654;9.410;2023-03-01T10:12:02;5.00;;;4.60;;
4500;SDS011;2263;54.654;9.410;2023-03-01T10:17:59;4.53;;;4.20;;
4500;SDS011;2263;54.654;9.410;2023-03-01T10:23:46;4.73;;;4.33;;
4500;SDS011;2263;54.654;9.410;2023-03-01T10:29:35;5.37;;;4.93;;
4500;SDS011;2263;54.654;9.410;2023-03-01T10:32:25;6.20;;;5.77;;
4500;SDS011;2263;54.654;9.410;2023-03-01T10:35:17;4.57;;;4.27;;
4500;SDS011;2263;54.654;9.410;2023-03-01T10:38:10;5.47;;;5.07;;
4500;SDS011;2263;54.654;9.410;2023-03-01T10:40:58;5.13;;;4.70;;
4500;SDS011;2263;54.654;9.410;2023-03-01T10:43:53;4.20;;;3.90;;
4500;SDS011;2263;54.654;9.410;2023-03-01T10:46:41;5.00;;;4.60;;
4500;SDS011;2263;54.654;9.410;2023-03-01T10:49:26;5.33;;;4.83;;
4500;SDS011;2263;54.654;9.410;2023-03-01T10:52:17;5.37;;;4.97;;
4500;SDS011;2263;54.654;9.410;2023-03-01T10:55:26;4.73;;;4.33;;
4500;SDS011;2263;54.654;9.410;2023-03-01T11:01:05;5.37;;;4.97;;
4500;SDS011;2263;54.654;9.410;2023-03-01T11:06:57;5.00;;;4.53;;
4500;SDS011;2263;54.654;9.410;2023-03-01T11:09:43;5.97;;;5.17;;
4500;SDS011;2263;54.654;9.410;2023-03-01T11:12:27;5.93;;;5.43;;
4500;SDS011;2263;54.654;9.410;2023-03-01T11:15:24;7.83;;;5.83;;
4500;SDS011;2263;54.654;9.410;2023-03-01T11:18:21;5.37;;;4.63;;
4500;SDS011;2263;54.654;9.410;2023-03-01T11:21:06;5.80;;;4.97;;
4500;SDS011;2263;54.654;9.410;2023-03-01T11:23:52;6.20;;;5.60;;
4500;SDS011;2263;54.654;9.410;2023-03-01T11:26:38;5.93;;;5.43;;
4500;SDS011;2263;54.654;9.410;2023-03-01T11:29:36;5.50;;;4.87;;
4500;SDS011;2263;54.654;9.410;2023-03-01T11:32:26;6.17;;;5.57;;
4500;SDS011;2263;54.654;9.410;2023-03-01T11:35:23;5.20;;;4.80;;
4500;SDS011;2263;54.654;9.410;2023-03-01T11:41:48;6.20;;;5.70;;
4500;SDS011;2263;54.654;9.410;2023-03-01T11:44:20;6.10;;;5.50;;
4500;SDS011;2263;54.654;9.410;2023-03-01T11:53:33;6.30;;;5.80;;
4500;SDS011;2263;54.654;9.410;2023-03-01T11:59:37;5.50;;;4.83;;
4500;SDS011;2263;54.654;9.410;2023-03-01T12:08:35;8.93;;;7.33;;
4500;SDS011;2263;54.654;9.410;2023-03-01T12:17:39;6.30;;;5.70;;
4500;SDS011;2263;54.654;9.410;2023-03-01T12:20:58;6.33;;;5.73;;
4500;SDS011;2263;54.654;9.410;2023-03-01T12:30:00;5.67;;;5.17;;
4500;SDS011;2263;54.654;9.410;2023-03-01T12:33:21;6.20;;;5.70;;
4500;SDS011;2263;54.654;9.410;2023-03-01T12:51:26;8.13;;;6.40;;
4500;SDS011;2263;54.654;9.410;2023-03-01T12:54:20;6.40;;;5.90;;
4500;SDS011;2263;54.654;9.410;2023-03-01T12:57:14;7.27;;;6.57;;
4500;SDS011;2263;54.654;9.410;2023-03-01T13:12:47;7.10;;;5.83;;
4500;SDS011;2263;54.654;9.410;2023-03-01T13:15:45;6.43;;;5.87;;
4500;SDS011;2263;54.654;9.410;2023-03-01T13:18:34;6.93;;;6.20;;
4500;SDS011;2263;54.654;9.410;2023-03-01T13:21:29;5.93;;;5.33;;
4500;SDS011;2263;54.654;9.410;2023-03-01T13:24:34;6.47;;;5.77;;
4500;SDS011;2263;54.654;9.410;2023-03-01T13:27:23;6.73;;;6.07;;
4500;SDS011;2263;54.654;9.410;2023-03-01T13:39:28;7.70;;;6.90;;
4500;SDS011;2263;54.654;9.410;2023-03-01T13:48:24;10.80;;;6.87;;
4500;SDS011;2263;54.654;9.410;2023-03-01T13:51:11;9.00;;;6.57;;
4500;SDS011;2263;54.654;9.410;2023-03-01T13:53:56;8.47;;;6.97;;
4500;SDS011;2263;54.654;9.410;2023-03-01T13:56:42;8.50;;;6.67;;
4500;SDS011;2263;54.654;9.410;2023-03-01T13:59:28;11.43;;;7.70;;
4500;SDS011;2263;54.654;9.410;2023-03-01T14:02:13;8.17;;;6.70;;
4500;SDS011;2263;54.654;9.410;2023-03-01T14:05:00;10.13;;;7.60;;
4500;SDS011;2263;54.654;9.410;2023-03-01T14:07:50;8.37;;;7.30;;
4500;SDS011;2263;54.654;9.410;2023-03-01T14:10:39;10.63;;;7.47;;
4500;SDS011;2263;54.654;9.410;2023-03-01T14:23:08;16.07;;;10.20;;
4500;SDS011;2263;54.654;9.410;2023-03-01T14:25:56;12.23;;;8.43;;
4500;SDS011;2263;54.654;9.410;2023-03-01T14:28:41;10.80;;;8.83;;
4500;SDS011;2263;54.654;9.410;2023-03-01T14:34:22;10.43;;;8.20;;
4500;SDS011;2263;54.654;9.410;2023-03-01T14:37:18;17.07;;;10.90;;
4500;SDS011;2263;54.654;9.410;2023-03-01T14:40:03;13.17;;;8.10;;
4500;SDS011;2263;54.654;9.410;2023-03-01T14:42:48;14.20;;;9.77;;
4500;SDS011;2263;54.654;9.410;2023-03-01T14:45:33;17.80;;;11.53;;
4500;SDS011;2263;54.654;9.410;2023-03-01T14:48:17;17.63;;;12.13;;
4500;SDS011;2263;54.654;9.410;2023-03-01T14:51:04;17.53;;;10.60;;
4500;SDS011;2263;54.654;9.410;2023-03-01T14:53:49;17.23;;;12.17;;
4500;SDS011;2263;54.654;9.410;2023-03-01T14:56:42;16.13;;;11.17;;
4500;SDS011;2263;54.654;9.410;2023-03-01T14:59:35;17.90;;;12.00;;
4500;SDS011;2263;54.654;9.410;2023-03-01T15:02:22;18.10;;;12.87;;
4500;SDS011;2263;54.654;9.410;2023-03-01T15:05:08;19.30;;;12.07;;
4500;SDS011;2263;54.654;9.410;2023-03-01T15:07:53;20.80;;;13.10;;
4500;SDS011;2263;54.654;9.410;2023-03-01T15:10:39;19.50;;;11.70;;
4500;SDS011;2263;54.654;9.410;2023-03-01T15:13:28;19.13;;;10.80;;
4500;SDS011;2263;54.654;9.410;2023-03-01T15:16:24;22.27;;;13.13;;
4500;SDS011;2263;54.654;9.410;2023-03-01T15:19:15;20.97;;;12.27;;
4500;SDS011;2263;54.654;9.410;2023-03-01T15:22:01;22.80;;;13.27;;
4500;SDS011;2263;54.654;9.410;2023-03-01T15:24:56;25.73;;;13.10;;
4500;SDS011;2263;54.654;9.410;2023-03-01T15:27:43;24.10;;;13.57;;
4500;SDS011;2263;54.654;9.410;2023-03-01T15:30:34;24.33;;;15.17;;
4500;SDS011;2263;54.654;9.410;2023-03-01T15:48:02;24.93;;;14.90;;
4500;SDS011;2263;54.654;9.410;2023-03-01T15:50:54;33.50;;;17.83;;
4500;SDS011;2263;54.654;9.410;2023-03-01T15:53:41;30.43;;;17.03;;
4500;SDS011;2263;54.654;9.410;2023-03-01T15:56:28;24.10;;;15.47;;
4500;SDS011;2263;54.654;9.410;2023-03-01T15:59:13;27.10;;;16.37;;
4500;SDS011;2263;54.654;9.410;2023-03-01T16:01:57;25.57;;;15.33;;
4500;SDS011;2263;54.654;9.410;2023-03-01T16:04:42;29.07;;;15.47;;
4500;SDS011;2263;54.654;9.410;2023-03-01T16:07:26;30.70;;;18.03;;
4500;SDS011;2263;54.654;9.410;2023-03-01T16:10:11;27.47;;;15.60;;
4500;SDS011;2263;54.654;9.410;2023-03-01T16:12:57;27.33;;;17.90;;
4500;SDS011;2263;54.654;9.410;2023-03-01T16:15:42;29.30;;;16.47;;
4500;SDS011;2263;54.654;9.410;2023-03-01T16:18:27;31.47;;;16.60;;
4500;SDS011;2263;54.654;9.410;2023-03-01T16:21:15;30.90;;;17.57;;
4500;SDS011;2263;54.654;9.410;2023-03-01T16:24:04;26.73;;;17.87;;
4500;SDS011;2263;54.654;9.410;2023-03-01T16:26:49;24.10;;;15.30;;
4500;SDS011;2263;54.654;9.410;2023-03-01T16:29:34;32.73;;;17.27;;
4500;SDS011;2263;54.654;9.410;2023-03-01T16:32:19;20.23;;;13.77;;
4500;SDS011;2263;54.654;9.410;2023-03-01T16:35:04;27.53;;;16.77;;
4500;SDS011;2263;54.654;9.410;2023-03-01T16:37:50;26.10;;;15.53;;
4500;SDS011;2263;54.654;9.410;2023-03-01T16:40:37;27.10;;;15.33;;
4500;SDS011;2263;54.654;9.410;2023-03-01T16:43:22;24.43;;;16.07;;
4500;SDS011;2263;54.654;9.410;2023-03-01T17:17:34;27.77;;;16.20;;
4500;SDS011;2263;54.654;9.410;2023-03-01T17:20:18;22.40;;;15.47;;
4500;SDS011;2263;54.654;9.410;2023-03-01T17:23:03;23.57;;;14.37;;
4500;SDS011;2263;54.654;9.410;2023-03-01T17:25:48;25.00;;;15.80;;
4500;SDS011;2263;54.654;9.410;2023-03-01T17:28:33;27.33;;;15.90;;
4500;SDS011;2263;54.654;9.410;2023-03-01T17:31:18;22.67;;;14.70;;
4500;SDS011;2263;54.654;9.410;2023-03-01T17:34:03;26.47;;;16.30;;
4500;SDS011;2263;54.654;9.410;2023-03-01T17:36:48;22.13;;;14.37;;
4500;SDS011;2263;54.654;9.410;2023-03-01T17:39:34;24.07;;;14.03;;
4500;SDS011;2263;54.654;9.410;2023-03-01T17:42:21;18.50;;;13.00;;
4500;SDS011;2263;54.654;9.410;2023-03-01T17:45:06;24.67;;;15.43;;
4500;SDS011;2263;54.654;9.410;2023-03-01T17:47:51;25.13;;;15.23;;
4500;SDS011;2263;54.654;9.410;2023-03-01T17:50:36;19.27;;;12.60;;
4500;SDS011;2263;54.654;9.410;2023-03-01T17:53:23;21.03;;;14.37;;
4500;SDS011;2263;54.654;9.410;2023-03-01T17:56:07;21.23;;;13.70;;
4500;SDS011;2263;54.654;9.410;2023-03-01T17:58:52;22.63;;;13.10;;
4500;SDS011;2263;54.654;9.410;2023-03-01T18:01:39;24.77;;;15.00;;
4500;SDS011;2263;54.654;9.410;2023-03-01T18:04:25;21.73;;;13.93;;
4500;SDS011;2263;54.654;9.410;2023-03-01T18:07:10;22.27;;;12.90;;
4500;SDS011;2263;54.654;9.410;2023-03-01T18:09:55;23.97;;;14.97;;
4500;SDS011;2263;54.654;9.410;2023-03-01T18:12:39;31.87;;;19.07;;
4500;SDS011;2263;54.654;9.410;2023-03-01T18:15:24;33.83;;;20.30;;
4500;SDS011;2263;54.654;9.410;2023-03-01T18:18:08;29.77;;;18.57;;
4500;SDS011;2263;54.654;9.410;2023-03-01T18:20:56;32.10;;;16.30;;
4500;SDS011;2263;54.654;9.410;2023-03-01T18:23:42;29.70;;;17.13;;
4500;SDS011;2263;54.654;9.410;2023-03-01T18:26:26;27.50;;;16.27;;
4500;SDS011;2263;54.654;9.410;2023-03-01T18:29:12;21.23;;;14.23;;
4500;SDS011;2263;54.654;9.410;2023-03-01T18:31:56;28.00;;;16.97;;
4500;SDS011;2263;54.654;9.410;2023-03-01T18:34:40;29.67;;;15.50;;
4500;SDS011;2263;54.654;9.410;2023-03-01T18:37:25;22.07;;;14.30;;
4500;SDS011;2263;54.654;9.410;2023-03-01T18:40:09;26.20;;;14.93;;
4500;SDS011;2263;54.654;9.410;2023-03-01T18:42:55;27.47;;;14.97;;
4500;SDS011;2263;54.654;9.410;2023-03-01T18:45:40;25.87;;;14.20;;
4500;SDS011;2263;54.654;9.410;2023-03-01T18:48:27;25.50;;;16.27;;
4500;SDS011;2263;54.654;9.410;2023-03-01T18:51:13;26.83;;;15.90;;
4500;SDS011;2263;54.654;9.410;2023-03-01T18:54:00;27.27;;;16.80;;
4500;SDS011;2263;54.654;9.410;2023-03-01T18:56:44;22.07;;;15.20;;
4500;SDS011;2263;54.654;9.410;2023-03-01T18:59:29;28.13;;;17.07;;
4500;SDS011;2263;54.654;9.410;2023-03-01T19:02:13;28.30;;;16.30;;
4500;SDS011;2263;54.654;9.410;2023-03-01T19:04:58;32.30;;;18.73;;
4500;SDS011;2263;54.654;9.410;2023-03-01T19:07:42;26.57;;;17.70;;
4500;SDS011;2263;54.654;9.410;2023-03-01T19:10:27;27.03;;;16.90;;
4500;SDS011;2263;54.654;9.410;2023-03-01T19:13:12;27.73;;;16.17;;
4500;SDS011;2263;54.654;9.410;2023-03-01T19:16:06;27.33;;;17.43;;
4500;SDS011;2263;54.654;9.410;2023-03-01T19:18:51;25.57;;;17.07;;
4500;SDS011;2263;54.654;9.410;2023-03-01T19:21:42;27.70;;;17.93;;
4500;SDS011;2263;54.654;9.410;2023-03-01T19:24:26;30.90;;;17.40;;
4500;SDS011;2263;54.654;9.410;2023-03-01T19:27:11;33.77;;;17.97;;
4500;SDS011;2263;54.654;9.410;2023-03-01T19:29:55;30.00;;;18.10;;
4500;SDS011;2263;54.654;9.410;2023-03-01T19:32:42;26.83;;;16.70;;
4500;SDS011;2263;54.654;9.410;2023-03-01T19:35:27;33.20;;;19.00;;
4500;SDS011;2263;54.654;9.410;2023-03-01T19:38:11;26.63;;;17.03;;
4500;SDS011;2263;54.654;9.410;2023-03-01T19:40:56;29.50;;;16.90;;
4500;SDS011;2263;54.654;9.410;2023-03-01T19:43:41;29.97;;;18.13;;
4500;SDS011;2263;54.654;9.410;2023-03-01T19:46:26;29.77;;;19.83;;
4500;SDS011;2263;54.654;9.410;2023-03-01T19:49:11;28.67;;;17.80;;
4500;SDS011;2263;54.654;9.410;2023-03-01T19:51:55;28.13;;;16.50;;
4500;SDS011;2263;54.654;9.410;2023-03-01T19:54:40;24.87;;;16.73;;
4500;SDS011;2263;54.654;9.410;2023-03-01T19:57:24;25.40;;;16.53;;